sensor_id;sensor_type;location;lat;lon;timestamp;P1;durP1;ratioP1;P2;durP2;ratioP2
26822;SDS011;14852;51.910;8.878;2022-12-29T00:00:05;1.60;;;1.33;;
26822;SDS011;14852;51.910;8.878;2022-12-29T00:02:39;1.20;;;1.02;;
26822;SDS011;14852;51.910;8.878;2022-12-29T00:05:05;1.90;;;1.20;;
26822;SDS011;14852;51.910;8.878;2022-12-29T00:07:32;1.60;;;1.40;;
26822;SDS011;14852;51.910;8.878;2022-12-29T00:09:58;2.67;;;1.77;;
26822;SDS011;14852;51.910;8.878;2022-12-29T00:12:24;1.75;;;1.60;;
26822;SDS011;14852;51.910;8.878;2022-12-29T00:14:49;1.73;;;1.10;;
26822;SDS011;14852;51.910;8.878;2022-12-29T00:17:34;1.83;;;1.42;;
26822;SDS011;14852;51.910;8.878;2022-12-29T00:19:59;1.35;;;1.20;;
26822;SDS011;14852;51.910;8.878;2022-12-29T00:22:43;2.13;;;1.33;;
26822;SDS011;14852;51.910;8.878;2022-12-29T00:25:28;1.27;;;1.10;;
26822;SDS011;14852;51.910;8.878;2022-12-29T00:28:12;1.92;;;1.42;;
26822;SDS011;14852;51.910;8.878;2022-12-29T00:30:59;1.75;;;1.40;;
26822;SDS011;14852;51.910;8.878;2022-12-29T00:33:44;1.25;;;1.15;;
26822;SDS011;14852;51.910;8.878;2022-12-29T00:36:32;1.10;;;1.00;;
26822;SDS011;14852;51.910;8.878;2022-12-29T00:39:06;2.00;;;1.40;;
26822;SDS011;14852;51.910;8.878;2022-12-29T00:41:55;1.52;;;1.42;;
26822;SDS011;14852;51.910;8.878;2022-12-29T00:44:40;1.90;;;1.20;;
26822;SDS011;14852;51.910;8.878;2022-12-29T00:47:08;1.15;;;0.85;;
26822;SDS011;14852;51.910;8.878;2022-12-29T00:49:34;1.63;;;1.30;;
26822;SDS011;14852;51.910;8.878;2022-12-29T00:52:06;1.00;;;1.00;;
26822;SDS011;14852;51.910;8.878;2022-12-29T00:54:35;1.33;;;1.00;;
26822;SDS011;14852;51.910;8.878;2022-12-29T00:57:04;2.17;;;1.10;;
26822;SDS011;14852;51.910;8.878;2022-12-29T00:59:37;1.30;;;1.10;;
26822;SDS011;14852;51.910;8.878;2022-12-29T01:02:04;1.17;;;1.05;;
26822;SDS011;14852;51.910;8.878;2022-12-29T01:04:31;1.65;;;0.82;;
26822;SDS011;14852;51.910;8.878;2022-12-29T01:06:57;1.45;;;1.10;;
26822;SDS011;14852;51.910;8.878;2022-12-29T01:09:23;0.95;;;0.80;;
26822;SDS011;14852;51.910;8.878;2022-12-29T01:12:08;0.85;;;0.80;;
26822;SDS011;14852;51.910;8.878;2022-12-29T01:14:35;1.17;;;0.95;;
26822;SDS011;14852;51.910;8.878;2022-12-29T01:17:02;0.98;;;0.80;;
26822;SDS011;14852;51.910;8.878;2022-12-29T01:19:28;0.77;;;0.77;;
26822;SDS011;14852;51.910;8.878;2022-12-29T01:21:55;0.85;;;0.80;;
26822;SDS011;14852;51.910;8.878;2022-12-29T01:24:20;1.15;;;0.95;;
26822;SDS011;14852;51.910;8.878;2022-12-29T01:26:46;1.35;;;1.05;;
26822;SDS011;14852;51.910;8.878;2022-12-29T01:29:15;0.65;;;0.60;;
26822;SDS011;14852;51.910;8.878;2022-12-29T01:31:44;0.75;;;0.75;;
26822;SDS011;14852;51.910;8.878;2022-12-29T01:34:10;2.35;;;0.90;;
26822;SDS011;14852;51.910;8.878;2022-12-29T01:36:36;1.95;;;1.38;;
26822;SDS011;14852;51.910;8.878;2022-12-29T01:39:02;0.85;;;0.80;;
26822;SDS011;14852;51.910;8.878;2022-12-29T01:41:28;1.05;;;0.93;;
26822;SDS011;14852;51.910;8.878;2022-12-29T01:43:55;0.82;;;0.70;;
26822;SDS011;14852;51.910;8.878;2022-12-29T01:46:31;0.90;;;0.85;;
26822;SDS011;14852;51.910;8.878;2022-12-29T01:49:18;0.70;;;0.70;;
26822;SDS011;14852;51.910;8.878;2022-12-29T01:51:56;1.05;;;0.90;;
26822;SDS011;14852;51.910;8.878;2022-12-29T01:54:30;1.23;;;0.73;;
26822;SDS011;14852;51.910;8.878;2022-12-29T01:57:03;2.15;;;0.90;;
26822;SDS011;14852;51.910;8.878;2022-12-29T01:59:39;2.15;;;1.00;;
26822;SDS011;14852;51.910;8.878;2022-12-29T02:02:15;1.27;;;0.80;;
26822;SDS011;14852;51.910;8.878;2022-12-29T02:04:41;1.20;;;1.10;;
26822;SDS011;14852;51.910;8.878;2022-12-29T02:07:16;1.10;;;0.85;;
26822;SDS011;14852;51.910;8.878;2022-12-29T02:09:48;0.60;;;0.60;;
26822;SDS011;14852;51.910;8.878;2022-12-29T02:12:16;0.65;;;0.65;;
26822;SDS011;14852;51.910;8.878;2022-12-29T02:14:45;1.40;;;0.88;;
26822;SDS011;14852;51.910;8.878;2022-12-29T02:31:52;1.80;;;0.90;;
26822;SDS011;14852;51.910;8.878;2022-12-29T02:37:17;1.08;;;0.90;;
26822;SDS011;14852;51.910;8.878;2022-12-29T02:43:34;0.70;;;0.70;;
26822;SDS011;14852;51.910;8.878;2022-12-29T02:46:21;0.65;;;0.55;;
26822;SDS011;14852;51.910;8.878;2022-12-29T02:49:10;0.82;;;0.75;;
26822;SDS011;14852;51.910;8.878;2022-12-29T02:54:32;0.70;;;0.70;;
26822;SDS011;14852;51.910;8.878;2022-12-29T02:57:09;0.88;;;0.70;;
26822;SDS011;14852;51.910;8.878;2022-12-29T03:00:10;1.35;;;0.60;;
26822;SDS011;14852;51.910;8.878;2022-12-29T03:05:45;0.75;;;0.60;;
26822;SDS011;14852;51.910;8.878;2022-12-29T03:08:39;0.80;;;0.80;;
26822;SDS011;14852;51.910;8.878;2022-12-29T03:11:21;1.00;;;0.68;;
26822;SDS011;14852;51.910;8.878;2022-12-29T03:14:26;0.82;;;0.40;;
26822;SDS011;14852;51.910;8.878;2022-12-29T03:17:24;0.50;;;0.50;;
26822;SDS011;14852;51.910;8.878;2022-12-29T03:20:06;0.45;;;0.45;;
26822;SDS011;14852;51.910;8.878;2022-12-29T03:22:40;0.93;;;0.73;;
26822;SDS011;14852;51.910;8.878;2022-12-29T03:27:49;1.50;;;0.63;;
26822;SDS011;14852;51.910;8.878;2022-12-29T03:30:31;1.13;;;1.02;;
26822;SDS011;14852;51.910;8.878;2022-12-29T03:32:59;0.43;;;0.43;;
26822;SDS011;14852;51.910;8.878;2022-12-29T03:35:32;0.80;;;0.60;;
26822;SDS011;14852;51.910;8.878;2022-12-29T03:40:43;1.38;;;0.60;;
26822;SDS011;14852;51.910;8.878;2022-12-29T03:43:16;0.57;;;0.50;;
26822;SDS011;14852;51.910;8.878;2022-12-29T03:45:44;0.30;;;0.30;;
26822;SDS011;14852;51.910;8.878;2022-12-29T03:48:10;0.80;;;0.80;;
26822;SDS011;14852;51.910;8.878;2022-12-29T03:50:39;0.38;;;0.38;;
26822;SDS011;14852;51.910;8.878;2022-12-29T03:53:05;0.35;;;0.35;;
26822;SDS011;14852;51.910;8.878;2022-12-29T03:55:31;0.50;;;0.50;;
26822;SDS011;14852;51.910;8.878;2022-12-29T03:57:57;1.08;;;0.93;;
26822;SDS011;14852;51.910;8.878;2022-12-29T04:00:38;0.57;;;0.50;;
26822;SDS011;14852;51.910;8.878;2022-12-29T04:03:04;0.80;;;0.50;;
26822;SDS011;14852;51.910;8.878;2022-12-29T04:05:29;1.30;;;0.80;;
26822;SDS011;14852;51.910;8.878;2022-12-29T04:07:56;1.02;;;0.93;;
26822;SDS011;14852;51.910;8.878;2022-12-29T04:10:22;0.73;;;0.73;;
26822;SDS011;14852;51.910;8.878;2022-12-29T04:12:55;0.43;;;0.43;;
26822;SDS011;14852;51.910;8.878;2022-12-29T04:15:22;0.63;;;0.60;;
26822;SDS011;14852;51.910;8.878;2022-12-29T04:17:49;0.80;;;0.52;;
26822;SDS011;14852;51.910;8.878;2022-12-29T04:20:15;0.57;;;0.57;;
26822;SDS011;14852;51.910;8.878;2022-12-29T04:23:03;0.65;;;0.60;;
26822;SDS011;14852;51.910;8.878;2022-12-29T04:25:31;1.30;;;0.90;;
26822;SDS011;14852;51.910;8.878;2022-12-29T04:27:58;0.90;;;0.57;;
26822;SDS011;14852;51.910;8.878;2022-12-29T04:30:43;0.82;;;0.73;;
26822;SDS011;14852;51.910;8.878;2022-12-29T04:33:15;0.57;;;0.57;;
26822;SDS011;14852;51.910;8.878;2022-12-29T04:35:42;1.55;;;0.88;;
26822;SDS011;14852;51.910;8.878;2022-12-29T04:38:09;0.75;;;0.60;;
26822;SDS011;14852;51.910;8.878;2022-12-29T04:40:37;0.60;;;0.60;;
26822;SDS011;14852;51.910;8.878;2022-12-29T04:43:05;0.60;;;0.52;;
26822;SDS011;14852;51.910;8.878;2022-12-29T04:45:36;0.73;;;0.73;;
26822;SDS011;14852;51.910;8.878;2022-12-29T04:48:09;1.15;;;1.00;;
26822;SDS011;14852;51.910;8.878;2022-12-29T04:50:43;0.77;;;0.60;;
26822;SDS011;14852;51.910;8.878;2022-12-29T04:53:14;0.50;;;0.50;;
26822;SDS011;14852;51.910;8.878;2022-12-29T04:55:42;1.27;;;0.80;;
26822;SDS011;14852;51.910;8.878;2022-12-29T04:58:08;0.65;;;0.63;;
26822;SDS011;14852;51.910;8.878;2022-12-29T05:00:35;0.80;;;0.50;;
26822;SDS011;14852;51.910;8.878;2022-12-29T05:03:01;0.73;;;0.73;;
26822;SDS011;14852;51.910;8.878;2022-12-29T05:05:28;0.47;;;0.47;;
26822;SDS011;14852;51.910;8.878;2022-12-29T05:07:54;1.15;;;0.90;;
26822;SDS011;14852;51.910;8.878;2022-12-29T05:10:20;0.60;;;0.60;;
26822;SDS011;14852;51.910;8.878;2022-12-29T05:12:48;0.95;;;0.73;;
26822;SDS011;14852;51.910;8.878;2022-12-29T05:15:14;0.50;;;0.50;;
26822;SDS011;14852;51.910;8.878;2022-12-29T05:17:41;0.73;;;0.73;;
26822;SDS011;14852;51.910;8.878;2022-12-29T05:20:07;2.10;;;1.35;;
26822;SDS011;14852;51.910;8.878;2022-12-29T05:22:35;0.43;;;0.43;;
26822;SDS011;14852;51.910;8.878;2022-12-29T05:25:01;0.75;;;0.70;;
26822;SDS011;14852;51.910;8.878;2022-12-29T05:27:28;1.20;;;0.80;;
26822;SDS011;14852;51.910;8.878;2022-12-29T05:30:13;0.40;;;0.40;;
26822;SDS011;14852;51.910;8.878;2022-12-29T05:32:39;0.47;;;0.47;;
26822;SDS011;14852;51.910;8.878;2022-12-29T05:35:06;0.50;;;0.50;;
26822;SDS011;14852;51.910;8.878;2022-12-29T05:37:33;0.55;;;0.55;;
26822;SDS011;14852;51.910;8.878;2022-12-29T05:39:58;0.43;;;0.38;;
26822;SDS011;14852;51.910;8.878;2022-12-29T05:42:24;0.47;;;0.43;;
26822;SDS011;14852;51.910;8.878;2022-12-29T05:45:06;1.63;;;0.55;;
26822;SDS011;14852;51.910;8.878;2022-12-29T05:47:51;0.60;;;0.38;;
26822;SDS011;14852;51.910;8.878;2022-12-29T05:50:29;0.50;;;0.50;;
26822;SDS011;14852;51.910;8.878;2022-12-29T05:53:06;0.32;;;0.30;;
26822;SDS011;14852;51.910;8.878;2022-12-29T05:55:34;0.50;;;0.50;;
26822;SDS011;14852;51.910;8.878;2022-12-29T05:58:00;0.50;;;0.50;;
26822;SDS011;14852;51.910;8.878;2022-12-29T06:00:26;0.70;;;0.60;;
26822;SDS011;14852;51.910;8.878;2022-12-29T06:02:52;0.77;;;0.77;;
26822;SDS011;14852;51.910;8.878;2022-12-29T06:05:18;0.40;;;0.40;;
26822;SDS011;14852;51.910;8.878;2022-12-29T06:07:44;0.57;;;0.57;;
26822;SDS011;14852;51.910;8.878;2022-12-29T06:10:12;0.50;;;0.50;;
26822;SDS011;14852;51.910;8.878;2022-12-29T06:12:43;0.70;;;0.70;;
26822;SDS011;14852;51.910;8.878;2022-12-29T06:15:09;1.05;;;0.93;;
26822;SDS011;14852;51.910;8.878;2022-12-29T06:17:38;1.30;;;0.50;;
26822;SDS011;14852;51.910;8.878;2022-12-29T06:20:04;1.52;;;0.68;;
26822;SDS011;14852;51.910;8.878;2022-12-29T06:22:31;0.88;;;0.82;;
26822;SDS011;14852;51.910;8.878;2022-12-29T06:24:57;0.60;;;0.60;;
26822;SDS011;14852;51.910;8.878;2022-12-29T06:27:23;0.40;;;0.40;;
26822;SDS011;14852;51.910;8.878;2022-12-29T06:29:50;1.05;;;0.80;;
26822;SDS011;14852;51.910;8.878;2022-12-29T06:32:16;0.68;;;0.68;;
26822;SDS011;14852;51.910;8.878;2022-12-29T06:34:47;0.82;;;0.82;;
26822;SDS011;14852;51.910;8.878;2022-12-29T06:37:13;1.00;;;0.60;;
26822;SDS011;14852;51.910;8.878;2022-12-29T06:39:39;0.80;;;0.80;;
26822;SDS011;14852;51.910;8.878;2022-12-29T06:42:09;0.80;;;0.47;;
26822;SDS011;14852;51.910;8.878;2022-12-29T06:44:54;1.25;;;0.80;;
26822;SDS011;14852;51.910;8.878;2022-12-29T06:47:22;1.55;;;0.90;;
26822;SDS011;14852;51.910;8.878;2022-12-29T06:49:48;0.93;;;0.82;;
26822;SDS011;14852;51.910;8.878;2022-12-29T06:52:13;1.40;;;0.55;;
26822;SDS011;14852;51.910;8.878;2022-12-29T06:54:39;1.58;;;0.80;;
26822;SDS011;14852;51.910;8.878;2022-12-29T06:57:05;1.20;;;0.90;;
26822;SDS011;14852;51.910;8.878;2022-12-29T06:59:31;1.63;;;0.82;;
26822;SDS011;14852;51.910;8.878;2022-12-29T07:01:56;1.52;;;0.70;;
26822;SDS011;14852;51.910;8.878;2022-12-29T07:04:22;1.77;;;0.77;;
26822;SDS011;14852;51.910;8.878;2022-12-29T07:06:48;1.27;;;1.02;;
26822;SDS011;14852;51.910;8.878;2022-12-29T07:09:14;0.50;;;0.45;;
26822;SDS011;14852;51.910;8.878;2022-12-29T07:11:40;0.47;;;0.47;;
26822;SDS011;14852;51.910;8.878;2022-12-29T07:14:05;1.75;;;0.80;;
26822;SDS011;14852;51.910;8.878;2022-12-29T07:16:31;1.15;;;1.05;;
26822;SDS011;14852;51.910;8.878;2022-12-29T07:18:59;2.08;;;0.77;;
26822;SDS011;14852;51.910;8.878;2022-12-29T07:21:24;1.17;;;0.90;;
26822;SDS011;14852;51.910;8.878;2022-12-29T07:23:50;0.95;;;0.75;;
26822;SDS011;14852;51.910;8.878;2022-12-29T07:26:16;1.42;;;0.80;;
26822;SDS011;14852;51.910;8.878;2022-12-29T07:28:43;1.90;;;0.80;;
26822;SDS011;14852;51.910;8.878;2022-12-29T07:31:16;0.80;;;0.60;;
26822;SDS011;14852;51.910;8.878;2022-12-29T07:33:44;1.73;;;0.70;;
26822;SDS011;14852;51.910;8.878;2022-12-29T07:36:11;1.40;;;0.80;;
26822;SDS011;14852;51.910;8.878;2022-12-29T07:38:38;1.10;;;0.52;;
26822;SDS011;14852;51.910;8.878;2022-12-29T07:41:04;0.95;;;0.80;;
26822;SDS011;14852;51.910;8.878;2022-12-29T07:43:29;1.65;;;0.90;;
26822;SDS011;14852;51.910;8.878;2022-12-29T07:46:31;0.95;;;0.90;;
26822;SDS011;14852;51.910;8.878;2022-12-29T07:48:57;1.77;;;0.80;;
26822;SDS011;14852;51.910;8.878;2022-12-29T07:51:22;0.90;;;0.65;;
26822;SDS011;14852;51.910;8.878;2022-12-29T07:53:48;1.25;;;0.85;;
26822;SDS011;14852;51.910;8.878;2022-12-29T07:56:14;0.80;;;0.80;;
26822;SDS011;14852;51.910;8.878;2022-12-29T07:58:41;1.15;;;0.90;;
26822;SDS011;14852;51.910;8.878;2022-12-29T08:01:07;1.40;;;0.63;;
26822;SDS011;14852;51.910;8.878;2022-12-29T08:03:32;1.00;;;0.70;;
26822;SDS011;14852;51.910;8.878;2022-12-29T08:05:58;1.08;;;0.75;;
26822;SDS011;14852;51.910;8.878;2022-12-29T08:08:24;0.60;;;0.60;;
26822;SDS011;14852;51.910;8.878;2022-12-29T08:10:50;1.45;;;1.00;;
26822;SDS011;14852;51.910;8.878;2022-12-29T08:13:16;1.35;;;0.85;;
26822;SDS011;14852;51.910;8.878;2022-12-29T08:15:41;1.95;;;0.65;;
26822;SDS011;14852;51.910;8.878;2022-12-29T08:18:07;0.80;;;0.75;;
26822;SDS011;14852;51.910;8.878;2022-12-29T08:20:33;2.47;;;1.05;;
26822;SDS011;14852;51.910;8.878;2022-12-29T08:22:59;1.27;;;1.00;;
26822;SDS011;14852;51.910;8.878;2022-12-29T08:25:24;1.85;;;0.77;;
26822;SDS011;14852;51.910;8.878;2022-12-29T08:27:50;2.38;;;1.00;;
26822;SDS011;14852;51.910;8.878;2022-12-29T08:30:16;0.73;;;0.68;;
26822;SDS011;14852;51.910;8.878;2022-12-29T08:32:41;0.98;;;0.88;;
26822;SDS011;14852;51.910;8.878;2022-12-29T08:35:07;1.15;;;0.98;;
26822;SDS011;14852;51.910;8.878;2022-12-29T08:37:33;0.98;;;0.80;;
26822;SDS011;14852;51.910;8.878;2022-12-29T08:39:59;0.80;;;0.80;;
26822;SDS011;14852;51.910;8.878;2022-12-29T08:42:28;0.85;;;0.70;;
26822;SDS011;14852;51.910;8.878;2022-12-29T08:44:56;1.17;;;0.60;;
26822;SDS011;14852;51.910;8.878;2022-12-29T08:47:23;1.15;;;0.95;;
26822;SDS011;14852;51.910;8.878;2022-12-29T08:49:49;1.30;;;0.70;;
26822;SDS011;14852;51.910;8.878;2022-12-29T08:52:15;0.90;;;0.90;;
26822;SDS011;14852;51.910;8.878;2022-12-29T08:54:41;2.20;;;1.00;;
26822;SDS011;14852;51.910;8.878;2022-12-29T08:57:06;0.65;;;0.65;;
26822;SDS011;14852;51.910;8.878;2022-12-29T08:59:38;0.80;;;0.80;;
26822;SDS011;14852;51.910;8.878;2022-12-29T09:02:04;1.05;;;0.63;;
26822;SDS011;14852;51.910;8.878;2022-12-29T09:04:29;1.13;;;1.02;;
26822;SDS011;14852;51.910;8.878;2022-12-29T09:06:55;1.00;;;0.80;;
26822;SDS011;14852;51.910;8.878;2022-12-29T09:09:21;0.85;;;0.75;;
26822;SDS011;14852;51.910;8.878;2022-12-29T09:11:47;1.17;;;0.80;;
26822;SDS011;14852;51.910;8.878;2022-12-29T09:14:13;2.17;;;0.90;;
26822;SDS011;14852;51.910;8.878;2022-12-29T09:16:39;1.08;;;0.82;;
26822;SDS011;14852;51.910;8.878;2022-12-29T09:19:24;0.80;;;0.80;;
26822;SDS011;14852;51.910;8.878;2022-12-29T09:21:50;2.38;;;1.00;;
26822;SDS011;14852;51.910;8.878;2022-12-29T09:24:16;1.27;;;0.80;;
26822;SDS011;14852;51.910;8.878;2022-12-29T09:26:41;0.95;;;0.70;;
26822;SDS011;14852;51.910;8.878;2022-12-29T09:29:07;1.35;;;1.00;;
26822;SDS011;14852;51.910;8.878;2022-12-29T09:31:33;1.77;;;1.05;;
26822;SDS011;14852;51.910;8.878;2022-12-29T09:33:59;1.92;;;1.00;;
26822;SDS011;14852;51.910;8.878;2022-12-29T09:36:24;2.15;;;1.30;;
26822;SDS011;14852;51.910;8.878;2022-12-29T09:38:52;2.92;;;1.25;;
26822;SDS011;14852;51.910;8.878;2022-12-29T09:41:26;1.88;;;1.00;;
26822;SDS011;14852;51.910;8.878;2022-12-29T09:47:01;2.20;;;1.30;;
26822;SDS011;14852;51.910;8.878;2022-12-29T09:49:49;7.35;;;1.30;;
26822;SDS011;14852;51.910;8.878;2022-12-29T09:52:25;1.67;;;1.10;;
26822;SDS011;14852;51.910;8.878;2022-12-29T09:55:08;2.33;;;0.95;;
26822;SDS011;14852;51.910;8.878;2022-12-29T09:57:49;1.58;;;0.85;;
26822;SDS011;14852;51.910;8.878;2022-12-29T10:00:24;3.35;;;1.10;;
26822;SDS011;14852;51.910;8.878;2022-12-29T10:03:11;2.10;;;1.10;;
26822;SDS011;14852;51.910;8.878;2022-12-29T10:19:57;1.48;;;1.15;;
26822;SDS011;14852;51.910;8.878;2022-12-29T10:25:55;3.17;;;1.50;;
26822;SDS011;14852;51.910;8.878;2022-12-29T10:28:24;3.45;;;1.60;;
26822;SDS011;14852;51.910;8.878;2022-12-29T10:31:03;1.85;;;1.25;;
26822;SDS011;14852;51.910;8.878;2022-12-29T10:33:39;3.28;;;1.13;;
26822;SDS011;14852;51.910;8.878;2022-12-29T10:36:14;1.85;;;1.38;;
26822;SDS011;14852;51.910;8.878;2022-12-29T10:41:49;3.28;;;1.58;;
26822;SDS011;14852;51.910;8.878;2022-12-29T10:44:24;2.17;;;0.85;;
26822;SDS011;14852;51.910;8.878;2022-12-29T10:46:57;3.63;;;1.73;;
26822;SDS011;14852;51.910;8.878;2022-12-29T10:49:30;3.60;;;1.48;;
26822;SDS011;14852;51.910;8.878;2022-12-29T10:52:02;4.00;;;1.42;;
26822;SDS011;14852;51.910;8.878;2022-12-29T10:54:33;2.90;;;1.20;;
26822;SDS011;14852;51.910;8.878;2022-12-29T10:57:26;5.55;;;1.40;;
26822;SDS011;14852;51.910;8.878;2022-12-29T10:59:54;4.82;;;1.80;;
26822;SDS011;14852;51.910;8.878;2022-12-29T11:02:40;4.22;;;1.58;;
26822;SDS011;14852;51.910;8.878;2022-12-29T11:05:16;1.52;;;0.98;;
26822;SDS011;14852;51.910;8.878;2022-12-29T11:08:11;4.53;;;1.73;;
26822;SDS011;14852;51.910;8.878;2022-12-29T11:10:43;4.20;;;1.30;;
26822;SDS011;14852;51.910;8.878;2022-12-29T11:13:11;3.08;;;1.40;;
26822;SDS011;14852;51.910;8.878;2022-12-29T11:15:40;4.45;;;1.52;;
26822;SDS011;14852;51.910;8.878;2022-12-29T11:18:23;3.80;;;1.40;;
26822;SDS011;14852;51.910;8.878;2022-12-29T11:21:03;2.50;;;1.33;;
26822;SDS011;14852;51.910;8.878;2022-12-29T11:24:03;5.18;;;1.52;;
26822;SDS011;14852;51.910;8.878;2022-12-29T11:26:43;3.28;;;1.40;;
26822;SDS011;14852;51.910;8.878;2022-12-29T11:31:49;3.03;;;1.35;;
26822;SDS011;14852;51.910;8.878;2022-12-29T11:34:34;4.82;;;2.17;;
26822;SDS011;14852;51.910;8.878;2022-12-29T11:37:10;2.22;;;1.15;;
26822;SDS011;14852;51.910;8.878;2022-12-29T11:39:39;2.97;;;1.38;;
26822;SDS011;14852;51.910;8.878;2022-12-29T11:45:05;4.22;;;1.40;;
26822;SDS011;14852;51.910;8.878;2022-12-29T11:47:45;2.03;;;1.25;;
26822;SDS011;14852;51.910;8.878;2022-12-29T11:50:18;2.83;;;1.33;;
26822;SDS011;14852;51.910;8.878;2022-12-29T11:52:56;3.50;;;1.40;;
26822;SDS011;14852;51.910;8.878;2022-12-29T11:55:57;2.80;;;1.60;;
26822;SDS011;14852;51.910;8.878;2022-12-29T11:58:28;4.63;;;2.00;;
26822;SDS011;14852;51.910;8.878;2022-12-29T12:00:57;4.55;;;1.67;;
26822;SDS011;14852;51.910;8.878;2022-12-29T12:03:29;4.82;;;1.70;;
26822;SDS011;14852;51.910;8.878;2022-12-29T12:05:58;2.33;;;1.20;;
26822;SDS011;14852;51.910;8.878;2022-12-29T12:08:41;3.10;;;1.13;;
26822;SDS011;14852;51.910;8.878;2022-12-29T12:11:30;3.00;;;1.58;;
26822;SDS011;14852;51.910;8.878;2022-12-29T12:17:16;2.53;;;1.40;;
26822;SDS011;14852;51.910;8.878;2022-12-29T12:22:31;4.43;;;1.33;;
26822;SDS011;14852;51.910;8.878;2022-12-29T12:27:37;3.83;;;1.40;;
26822;SDS011;14852;51.910;8.878;2022-12-29T12:32:48;4.03;;;1.83;;
26822;SDS011;14852;51.910;8.878;2022-12-29T12:44:29;3.55;;;2.10;;
26822;SDS011;14852;51.910;8.878;2022-12-29T12:47:15;4.47;;;1.88;;
26822;SDS011;14852;51.910;8.878;2022-12-29T12:50:14;4.50;;;1.52;;
26822;SDS011;14852;51.910;8.878;2022-12-29T12:53:07;4.43;;;1.48;;
26822;SDS011;14852;51.910;8.878;2022-12-29T12:55:52;4.20;;;1.80;;
26822;SDS011;14852;51.910;8.878;2022-12-29T12:58:47;4.20;;;1.85;;
26822;SDS011;14852;51.910;8.878;2022-12-29T13:01:24;5.75;;;2.00;;
26822;SDS011;14852;51.910;8.878;2022-12-29T13:13:45;5.07;;;2.10;;
26822;SDS011;14852;51.910;8.878;2022-12-29T13:17:01;7.47;;;2.00;;
26822;SDS011;14852;51.910;8.878;2022-12-29T13:19:41;3.75;;;1.33;;
26822;SDS011;14852;51.910;8.878;2022-12-29T13:28:19;4.15;;;1.40;;
26822;SDS011;14852;51.910;8.878;2022-12-29T13:30:59;5.78;;;2.08;;
26822;SDS011;14852;51.910;8.878;2022-12-29T13:33:49;5.15;;;1.60;;
26822;SDS011;14852;51.910;8.878;2022-12-29T13:36:29;3.17;;;1.30;;
26822;SDS011;14852;51.910;8.878;2022-12-29T13:39:35;3.72;;;1.48;;
26822;SDS011;14852;51.910;8.878;2022-12-29T13:42:05;5.03;;;2.30;;
26822;SDS011;14852;51.910;8.878;2022-12-29T13:44:37;4.93;;;1.50;;
26822;SDS011;14852;51.910;8.878;2022-12-29T13:50:15;3.90;;;1.27;;
26822;SDS011;14852;51.910;8.878;2022-12-29T13:52:47;5.00;;;1.83;;
26822;SDS011;14852;51.910;8.878;2022-12-29T13:58:20;3.90;;;1.42;;
26822;SDS011;14852;51.910;8.878;2022-12-29T14:01:10;5.32;;;1.80;;
26822;SDS011;14852;51.910;8.878;2022-12-29T14:04:09;3.22;;;1.40;;
26822;SDS011;14852;51.910;8.878;2022-12-29T14:06:38;6.25;;;1.80;;
26822;SDS011;14852;51.910;8.878;2022-12-29T14:09:06;2.83;;;1.40;;
26822;SDS011;14852;51.910;8.878;2022-12-29T14:11:58;2.60;;;1.55;;
26822;SDS011;14852;51.910;8.878;2022-12-29T14:14:25;2.42;;;1.23;;
26822;SDS011;14852;51.910;8.878;2022-12-29T14:16:56;4.97;;;1.65;;
26822;SDS011;14852;51.910;8.878;2022-12-29T14:19:39;5.82;;;2.35;;
26822;SDS011;14852;51.910;8.878;2022-12-29T14:22:08;3.63;;;1.15;;
26822;SDS011;14852;51.910;8.878;2022-12-29T14:24:40;3.78;;;1.67;;
26822;SDS011;14852;51.910;8.878;2022-12-29T14:34:45;3.78;;;1.35;;
26822;SDS011;14852;51.910;8.878;2022-12-29T14:37:22;5.20;;;2.45;;
26822;SDS011;14852;51.910;8.878;2022-12-29T14:42:47;3.17;;;1.42;;
26822;SDS011;14852;51.910;8.878;2022-12-29T14:47:50;2.85;;;1.30;;
26822;SDS011;14852;51.910;8.878;2022-12-29T14:53:06;3.45;;;1.60;;
26822;SDS011;14852;51.910;8.878;2022-12-29T14:55:54;5.47;;;1.65;;
26822;SDS011;14852;51.910;8.878;2022-12-29T14:58:24;5.90;;;1.60;;
26822;SDS011;14852;51.910;8.878;2022-12-29T15:00:57;4.55;;;1.73;;
26822;SDS011;14852;51.910;8.878;2022-12-29T15:03:43;5.43;;;2.15;;
26822;SDS011;14852;51.910;8.878;2022-12-29T15:06:15;3.45;;;1.42;;
26822;SDS011;14852;51.910;8.878;2022-12-29T15:12:04;5.40;;;1.95;;
26822;SDS011;14852;51.910;8.878;2022-12-29T15:17:23;3.58;;;1.98;;
26822;SDS011;14852;51.910;8.878;2022-12-29T15:19:55;2.17;;;1.40;;
26822;SDS011;14852;51.910;8.878;2022-12-29T15:22:23;2.92;;;1.40;;
26822;SDS011;14852;51.910;8.878;2022-12-29T15:24:51;2.90;;;1.20;;
26822;SDS011;14852;51.910;8.878;2022-12-29T15:27:20;4.45;;;2.10;;
26822;SDS011;14852;51.910;8.878;2022-12-29T15:29:55;6.60;;;1.90;;
26822;SDS011;14852;51.910;8.878;2022-12-29T15:32:27;3.90;;;1.67;;
26822;SDS011;14852;51.910;8.878;2022-12-29T15:35:13;4.90;;;1.52;;
26822;SDS011;14852;51.910;8.878;2022-12-29T15:37:57;5.35;;;1.63;;
26822;SDS011;14852;51.910;8.878;2022-12-29T15:40:28;3.25;;;1.58;;
26822;SDS011;14852;51.910;8.878;2022-12-29T15:45:38;3.60;;;1.20;;
26822;SDS011;14852;51.910;8.878;2022-12-29T15:48:04;2.90;;;1.77;;
26822;SDS011;14852;51.910;8.878;2022-12-29T15:50:38;5.22;;;1.90;;
26822;SDS011;14852;51.910;8.878;2022-12-29T15:53:09;5.35;;;2.13;;
26822;SDS011;14852;51.910;8.878;2022-12-29T15:55:43;6.45;;;2.42;;
26822;SDS011;14852;51.910;8.878;2022-12-29T15:58:18;3.83;;;1.50;;
26822;SDS011;14852;51.910;8.878;2022-12-29T16:00:52;4.45;;;1.27;;
26822;SDS011;14852;51.910;8.878;2022-12-29T16:03:24;4.80;;;1.40;;
26822;SDS011;14852;51.910;8.878;2022-12-29T16:06:09;5.03;;;1.33;;
26822;SDS011;14852;51.910;8.878;2022-12-29T16:08:56;5.03;;;1.92;;
26822;SDS011;14852;51.910;8.878;2022-12-29T16:11:40;2.03;;;0.95;;
26822;SDS011;14852;51.910;8.878;2022-12-29T16:14:16;2.72;;;1.55;;
26822;SDS011;14852;51.910;8.878;2022-12-29T16:16:46;4.78;;;2.65;;
26822;SDS011;14852;51.910;8.878;2022-12-29T16:21:57;4.07;;;1.85;;
26822;SDS011;14852;51.910;8.878;2022-12-29T16:24:26;4.72;;;1.98;;
26822;SDS011;14852;51.910;8.878;2022-12-29T16:27:02;2.35;;;1.52;;
26822;SDS011;14852;51.910;8.878;2022-12-29T16:29:48;5.07;;;1.85;;
26822;SDS011;14852;51.910;8.878;2022-12-29T16:32:44;3.10;;;1.50;;
26822;SDS011;14852;51.910;8.878;2022-12-29T16:35:17;4.57;;;1.50;;
26822;SDS011;14852;51.910;8.878;2022-12-29T16:40:54;2.58;;;1.42;;
26822;SDS011;14852;51.910;8.878;2022-12-29T16:48:25;4.38;;;1.80;;
26822;SDS011;14852;51.910;8.878;2022-12-29T16:51:00;3.42;;;1.48;;
26822;SDS011;14852;51.910;8.878;2022-12-29T16:53:38;4.90;;;1.35;;
26822;SDS011;14852;51.910;8.878;2022-12-29T16:56:13;4.82;;;1.42;;
26822;SDS011;14852;51.910;8.878;2022-12-29T16:58:46;5.25;;;1.80;;
26822;SDS011;14852;51.910;8.878;2022-12-29T17:01:14;3.33;;;1.63;;
26822;SDS011;14852;51.910;8.878;2022-12-29T17:03:46;3.45;;;1.45;;
26822;SDS011;14852;51.910;8.878;2022-12-29T17:06:18;4.78;;;2.25;;
26822;SDS011;14852;51.910;8.878;2022-12-29T17:08:46;4.03;;;2.60;;
26822;SDS011;14852;51.910;8.878;2022-12-29T17:11:18;5.65;;;2.35;;
26822;SDS011;14852;51.910;8.878;2022-12-29T17:17:32;3.50;;;1.10;;
26822;SDS011;14852;51.910;8.878;2022-12-29T17:20:22;5.90;;;1.60;;
26822;SDS011;14852;51.910;8.878;2022-12-29T17:22:51;3.08;;;1.27;;
26822;SDS011;14852;51.910;8.878;2022-12-29T17:25:19;3.75;;;1.95;;
26822;SDS011;14852;51.910;8.878;2022-12-29T17:30:51;5.28;;;2.08;;
26822;SDS011;14852;51.910;8.878;2022-12-29T17:33:20;5.30;;;2.45;;
26822;SDS011;14852;51.910;8.878;2022-12-29T17:35:46;3.47;;;1.40;;
26822;SDS011;14852;51.910;8.878;2022-12-29T17:38:20;2.65;;;1.50;;
26822;SDS011;14852;51.910;8.878;2022-12-29T17:41:15;3.35;;;1.65;;
26822;SDS011;14852;51.910;8.878;2022-12-29T17:43:41;4.18;;;1.20;;
26822;SDS011;14852;51.910;8.878;2022-12-29T17:46:06;2.25;;;1.30;;